createdAt,value
2022-12-04T00:03:07.893Z,3.5
2022-12-04T00:08:14.074Z,3.5
2022-12-04T00:13:20.226Z,3.5
2022-12-04T00:18:26.429Z,3.5
2022-12-04T00:23:32.659Z,3.5
2022-12-04T00:28:38.856Z,3.5
2022-12-04T00:33:45.074Z,3.5
2022-12-04T00:38:51.270Z,3.5
2022-12-04T00:43:57.486Z,3.5
2022-12-04T00:49:03.687Z,3.5
2022-12-04T00:54:08.911Z,3.5
2022-12-04T00:59:15.131Z,3.5
2022-12-04T01:04:21.338Z,3.5
2022-12-04T01:09:27.541Z,3.5
2022-12-04T01:14:33.756Z,3.5
2022-12-04T01:19:39.957Z,3.5
2022-12-04T01:24:46.164Z,3.5
2022-12-04T01:29:52.593Z,3.5
2022-12-04T01:34:58.590Z,3.5
2022-12-04T01:40:04.876Z,3.5
2022-12-04T01:45:11.001Z,3.5
2022-12-04T01:50:17.224Z,3.5
2022-12-04T01:55:23.424Z,3.5
2022-12-04T02:00:29.630Z,3.5
2022-12-04T02:05:35.844Z,3.5
2022-12-04T02:10:42.044Z,3.5
2022-12-04T02:15:48.256Z,3.5
2022-12-04T02:20:54.470Z,3.5
2022-12-04T02:26:00.665Z,3.5
2022-12-04T02:31:06.954Z,3.6
2022-12-04T02:36:13.096Z,3.5
2022-12-04T02:41:19.294Z,3.5
2022-12-04T02:46:25.533Z,3.6
2022-12-04T02:51:31.708Z,3.6
2022-12-04T02:56:37.913Z,3.6
2022-12-04T03:01:44.153Z,3.6
2022-12-04T03:06:50.376Z,3.6
2022-12-04T03:11:56.609Z,3.6
2022-12-04T03:17:02.823Z,3.6
2022-12-04T03:22:08.945Z,3.6
2022-12-04T03:27:15.156Z,3.6
2022-12-04T03:32:21.358Z,3.6
2022-12-04T03:37:27.571Z,3.6
2022-12-04T03:42:33.785Z,3.6
2022-12-04T03:47:40.007Z,3.6
2022-12-04T03:52:46.207Z,3.6
2022-12-04T03:57:52.418Z,3.6
2022-12-04T04:02:58.679Z,3.6
2022-12-04T04:08:04.915Z,3.6
2022-12-04T04:13:11.047Z,3.6
2022-12-04T04:18:17.255Z,3.6
2022-12-04T04:23:23.469Z,3.6
2022-12-04T04:28:29.695Z,3.6
2022-12-04T04:33:35.897Z,3.6
2022-12-04T04:38:42.110Z,3.6
2022-12-04T04:43:48.313Z,3.6
2022-12-04T04:48:54.527Z,3.6
2022-12-04T04:54:00.730Z,3.6
2022-12-04T04:59:07.137Z,3.6
2022-12-04T05:04:13.143Z,3.6
2022-12-04T05:09:19.353Z,3.6
2022-12-04T05:14:25.588Z,3.6
2022-12-04T05:19:31.784Z,3.6
2022-12-04T05:24:37.991Z,3.6
2022-12-04T05:29:44.188Z,3.6
2022-12-04T05:34:50.412Z,3.6
2022-12-04T05:39:56.836Z,3.6
2022-12-04T05:45:02.818Z,3.6
2022-12-04T05:50:09.018Z,3.6
2022-12-04T05:55:15.221Z,3.6
2022-12-04T06:00:21.430Z,3.6
2022-12-04T06:05:27.657Z,3.6
2022-12-04T06:10:33.868Z,3.6
2022-12-04T06:15:40.072Z,3.6
2022-12-04T06:20:46.390Z,3.6
2022-12-04T06:25:51.501Z,3.6
2022-12-04T06:30:57.710Z,3.6
2022-12-04T06:36:03.914Z,3.6
2022-12-04T06:41:10.122Z,3.6
2022-12-04T06:46:16.434Z,3.6
2022-12-04T06:51:22.551Z,3.6
2022-12-04T06:56:28.769Z,3.6
2022-12-04T07:01:35.147Z,3.6
2022-12-04T07:06:41.174Z,3.6
2022-12-04T07:11:47.399Z,3.6
2022-12-04T07:16:53.641Z,3.6
2022-12-04T07:21:59.813Z,3.6
2022-12-04T07:27:06.015Z,3.6
2022-12-04T07:32:12.331Z,3.6
2022-12-04T07:37:18.455Z,3.6
2022-12-04T07:42:24.649Z,3.6
2022-12-04T07:47:30.856Z,3.7
2022-12-04T07:52:37.093Z,3.7
2022-12-04T07:57:43.270Z,3.7
2022-12-04T08:02:49.507Z,3.7
2022-12-04T08:07:55.767Z,3.7
2022-12-04T08:13:01.893Z,3.7
2022-12-04T08:18:08.136Z,3.7
2022-12-04T08:28:20.520Z,3.7
2022-12-04T08:33:26.747Z,3.8
2022-12-04T08:38:32.934Z,3.8
2022-12-04T08:43:39.141Z,3.8
2022-12-04T08:48:45.359Z,3.9
2022-12-04T08:53:51.683Z,3.9
2022-12-04T08:58:57.763Z,3.9
2022-12-04T09:04:04.071Z,3.9
2022-12-04T09:09:10.193Z,3.9
2022-12-04T09:14:16.417Z,4.0
2022-12-04T09:19:22.597Z,4.0
2022-12-04T09:24:28.818Z,4.0
2022-12-04T09:29:35.049Z,4.0
2022-12-04T09:34:41.221Z,4.0
2022-12-04T09:39:47.434Z,4.0
2022-12-04T09:44:53.646Z,4.0
2022-12-04T09:49:59.851Z,4.0
2022-12-04T09:55:06.069Z,4.0
2022-12-04T10:00:12.262Z,4.1
2022-12-04T10:05:18.473Z,4.0
2022-12-04T10:10:24.676Z,4.0
2022-12-04T10:15:30.893Z,4.0
2022-12-04T10:20:37.097Z,4.0
2022-12-04T10:25:43.300Z,4.0
2022-12-04T10:30:49.629Z,4.0
2022-12-04T10:35:55.724Z,4.1
2022-12-04T10:41:01.938Z,4.1
2022-12-04T10:46:08.197Z,4.0
2022-12-04T10:51:14.344Z,4.1
2022-12-04T10:56:20.551Z,4.1
2022-12-04T11:01:26.844Z,4.1
2022-12-04T11:06:32.970Z,4.1
2022-12-04T11:11:39.173Z,4.1
2022-12-04T11:16:45.482Z,4.1
2022-12-04T11:21:51.592Z,4.1
2022-12-04T11:26:57.815Z,4.2
2022-12-04T11:32:07.501Z,4.2
2022-12-04T11:37:10.237Z,4.2
2022-12-04T11:42:16.429Z,4.2
2022-12-04T11:47:22.641Z,4.2
2022-12-04T11:52:28.842Z,4.2
2022-12-04T11:57:34.060Z,4.3
2022-12-04T12:02:40.474Z,4.3
2022-12-04T12:07:46.531Z,4.3
2022-12-04T12:12:52.691Z,4.3
2022-12-04T12:17:58.891Z,4.3
2022-12-04T12:23:05.105Z,4.3
2022-12-04T12:28:10.320Z,4.3
2022-12-04T12:33:16.565Z,4.4
2022-12-04T12:38:22.744Z,4.4
2022-12-04T12:43:29.050Z,4.4
2022-12-04T12:48:35.274Z,4.4
2022-12-04T12:53:41.364Z,4.5
2022-12-04T12:58:47.572Z,4.5
2022-12-04T13:03:53.794Z,4.5
2022-12-04T13:14:06.220Z,4.5
2022-12-04T13:19:12.400Z,4.5
2022-12-04T13:24:18.614Z,4.5
2022-12-04T13:29:24.817Z,4.5
2022-12-04T13:34:31.025Z,4.5
2022-12-04T13:39:37.231Z,4.6
2022-12-04T13:44:43.450Z,4.6
2022-12-04T13:49:49.643Z,4.6
2022-12-04T13:54:56.218Z,4.6
2022-12-04T14:00:02.072Z,4.6
2022-12-04T14:05:08.261Z,4.6
2022-12-04T14:10:14.479Z,4.6
2022-12-04T14:15:20.678Z,4.6
2022-12-04T14:20:26.891Z,4.7
2022-12-04T14:25:33.098Z,4.7
2022-12-04T14:30:39.380Z,4.7
2022-12-04T14:35:45.517Z,4.7
2022-12-04T14:40:51.724Z,4.7
2022-12-04T14:45:57.987Z,4.7
2022-12-04T14:51:04.142Z,4.7
2022-12-04T14:56:10.347Z,4.7
2022-12-04T15:01:16.688Z,4.7
2022-12-04T15:06:22.751Z,4.7
2022-12-04T15:11:28.956Z,4.7
2022-12-04T15:16:35.170Z,4.7
2022-12-04T15:21:41.371Z,4.7
2022-12-04T15:26:47.587Z,4.7
2022-12-04T15:31:53.796Z,4.7
2022-12-04T15:37:00.002Z,4.7
2022-12-04T15:42:06.206Z,4.7
2022-12-04T15:47:12.417Z,4.7
2022-12-04T15:52:18.632Z,4.7
2022-12-04T15:57:24.826Z,4.7
2022-12-04T16:02:31.028Z,4.8
2022-12-04T16:12:43.452Z,4.8
2022-12-04T16:17:49.652Z,4.8
2022-12-04T16:22:55.864Z,4.8
2022-12-04T16:28:02.077Z,4.8
2022-12-04T16:33:08.284Z,4.9
2022-12-04T16:38:14.516Z,4.9
2022-12-04T16:43:20.698Z,4.8
2022-12-04T16:48:26.915Z,4.9
2022-12-04T16:53:33.099Z,4.9
2022-12-04T16:58:39.312Z,4.9
2022-12-04T17:03:45.590Z,4.9
2022-12-04T17:08:51.730Z,4.9
2022-12-04T17:13:57.934Z,4.9
2022-12-04T17:19:04.139Z,4.9
2022-12-04T17:24:10.354Z,4.8
2022-12-04T17:29:16.556Z,4.8
2022-12-04T17:34:22.761Z,4.8
2022-12-04T17:39:28.966Z,4.8
2022-12-04T17:44:35.181Z,4.8
2022-12-04T17:49:41.390Z,4.8
2022-12-04T17:54:47.613Z,4.8
2022-12-04T17:59:52.816Z,4.8
2022-12-04T18:04:59.212Z,4.8
2022-12-04T18:10:05.233Z,4.7
2022-12-04T18:15:11.437Z,4.7
2022-12-04T18:20:17.645Z,4.7
2022-12-04T18:25:23.851Z,4.7
2022-12-04T18:30:30.062Z,4.7
2022-12-04T18:35:36.480Z,4.7
2022-12-04T18:40:42.481Z,4.7
2022-12-04T18:45:48.759Z,4.8
2022-12-04T18:50:54.889Z,4.8
2022-12-04T18:56:01.095Z,4.8
2022-12-04T19:01:07.379Z,4.8
2022-12-04T19:06:13.634Z,4.8
2022-12-04T19:11:19.724Z,4.8
2022-12-04T19:16:25.958Z,4.8
2022-12-04T19:21:32.137Z,4.9
2022-12-04T19:26:38.346Z,4.9
2022-12-04T19:31:44.649Z,4.9
2022-12-04T19:36:50.757Z,4.9
2022-12-04T19:41:56.965Z,4.9
2022-12-04T19:47:03.192Z,4.9
2022-12-04T19:52:09.393Z,4.9
2022-12-04T19:57:15.596Z,4.9
2022-12-04T20:02:21.907Z,4.9
2022-12-04T20:07:28.073Z,4.9
2022-12-04T20:12:34.210Z,4.9
2022-12-04T20:17:40.410Z,4.9
2022-12-04T20:22:46.621Z,4.9
2022-12-04T20:27:52.823Z,5.0
2022-12-04T20:32:59.036Z,5.0
2022-12-04T20:38:05.249Z,5.0
2022-12-04T20:43:11.445Z,5.0
2022-12-04T20:48:17.691Z,5.0
2022-12-04T20:53:23.867Z,5.0
2022-12-04T20:58:30.073Z,5.0
2022-12-04T21:03:36.279Z,5.0
2022-12-04T21:08:42.489Z,5.0
2022-12-04T21:13:48.693Z,5.0
2022-12-04T21:18:54.890Z,5.0
2022-12-04T21:24:01.113Z,5.0
2022-12-04T21:29:07.315Z,5.0
2022-12-04T21:34:13.557Z,5.0
2022-12-04T21:39:19.732Z,5.1
2022-12-04T21:44:25.936Z,5.0
2022-12-04T21:49:32.156Z,5.0
2022-12-04T21:54:38.352Z,5.1
2022-12-04T21:59:44.560Z,5.1
2022-12-04T22:04:50.810Z,5.1
2022-12-04T22:09:57.439Z,5.1
2022-12-04T22:15:03.180Z,5.1
2022-12-04T22:20:09.412Z,5.1
2022-12-04T22:25:15.595Z,5.1
2022-12-04T22:30:21.799Z,5.1
2022-12-04T22:35:28.012Z,5.1
2022-12-04T22:40:34.220Z,5.1
2022-12-04T22:45:40.452Z,5.1
2022-12-04T22:50:46.639Z,5.1
2022-12-04T22:55:52.841Z,5.1
2022-12-04T23:00:59.060Z,5.2
2022-12-04T23:06:05.260Z,5.2
2022-12-04T23:11:11.467Z,5.2
2022-12-04T23:16:20.300Z,5.2
2022-12-04T23:21:23.878Z,5.2
2022-12-04T23:26:30.087Z,5.2
2022-12-04T23:31:35.394Z,5.3
2022-12-04T23:36:41.517Z,5.3
2022-12-04T23:41:47.730Z,5.3
2022-12-04T23:46:53.988Z,5.3
2022-12-04T23:52:00.136Z,5.3
2022-12-04T23:57:06.339Z,5.3
